METAR AND TAF INFORMATION
METAR FOR LTBA
ADDS - METARS form results

(2217 UTC 12 November 2019)
Data provider http://aviationweather.gov/metar/data/
 
METAR text: LTBA 122150Z 36007KT CAVOK 14/08 Q1015 NOSIG RMK RWY17L 36005KT RWY05 35005KT RWY23 01006KT
Conditions at: LTBA (ISTANBUL/ATATURK, TR) observed 2150 UTC 12 November 2019
Temperature: 14.0°C (57°F)
Dewpoint: 8.0°C (46°F) [RH = 67%]
Pressure (altimeter): 29.97 inches Hg (1015.0 mb)
Winds: from the N (360 degrees) at 8 MPH (7 knots; 3.6 m/s)
Visibility: 6 or more miles (10+ km)
Ceiling: ceiling and visibility are OK
Clouds: unknown
Weather: no significant weather observed at this time

METAR text: LTBA 122120Z 36006KT CAVOK 15/09 Q1015 NOSIG RMK RWY17L 36005KT RWY05 36005KT RWY23 02007G17KT 340V050
Conditions at: LTBA (ISTANBUL/ATATURK, TR) observed 2120 UTC 12 November 2019
Temperature: 15.0°C (59°F)
Dewpoint: 9.0°C (48°F) [RH = 67%]
Pressure (altimeter): 29.97 inches Hg (1015.0 mb)
Winds: from the N (360 degrees) at 7 MPH (6 knots; 3.1 m/s)
Visibility: 6 or more miles (10+ km)
Ceiling: ceiling and visibility are OK
Clouds: unknown
Weather: no significant weather observed at this time

Forecast for: LTBA (ISTANBUL/ATATURK, TR)
Text: TAF LTBA 121640Z 1218/1324 05008KT CAVOK
Forecast period: 1800 UTC 12 November 2019 to 0000 UTC 14 November 2019
Forecast type: FROM: standard forecast or significant change
Winds: from the NE (50 degrees) at 9 MPH (8 knots; 4.1 m/s)
Visibility: 6 or more miles 10+ km)
Ceiling: unknown
Clouds: missing
Weather: NSW  (no significant weather)
Text: PROB30
Forecast period: 0000 to 0400 UTC 13 November 2019
Forecast type: TEMPORARY: The following changes expected for less than half the time period
Visibility: 2.49 miles (4.01 km)
Ceiling: unknown
Clouds: missing
Weather: BR  (mist)

 AIRPORT MAP

 RUNWAY INFORMATION
Runway 05 Runway length 8530 ft Runway width 197 ft
Runway elevation 93 ft Runway displaced threshold 492 ft Runway heading 59
Runway 23 Runway length 8530 ft Runway width 197 ft
Runway elevation 90 ft Runway displaced threshold 0 ft Runway heading 239
Runway 17L Runway length 9843 ft Runway width 148 ft
Runway elevation 157 ft Runway displaced threshold 0 ft Runway heading 178
Runway 35R Runway length 9843 ft Runway width 148 ft
Runway elevation 100 ft Runway displaced threshold 0 ft Runway heading 358
Runway 17R Runway length 9843 ft Runway width 148 ft
Runway elevation 163 ft Runway displaced threshold 0 ft Runway heading 178
Runway 35L Runway length 9843 ft Runway width 148 ft
Runway elevation 102 ft Runway displaced threshold 0 ft Runway heading 358

 AIRPORT FREQUENCIES
Type APP Name YESILKOY A Frequency 120.5 MHZ
Type ATIS Name ATIS Frequency 128.2 MHZ
Type CLD Name YESILKOY D Frequency 121.7 MHZ
Type GND Name YESILKOY G Frequency 121.8 MHZ
Type RMP Name YESILKOY R Frequency 121.9 MHZ
Type TWR Name YESILKOY T Frequency 118.1 MHZ

 AIRPORT NEAR NAVIGATION AIDS
Type VORTAC Name Istanbul Frequency 112500 KHZ



Powered by Virtual Airlines Manager